UAE59U OMDB-OBBI
Flight info
| Callsign | UAE59U |
|---|---|
| Flight time | N/A |
| Altitude | 26000 |
| Route | NABIX P699 ORMID M556 ORDIG |
| Aircraft | A359/H-SDE2E3GHIJ3J4J5LM1ORWXY/LB1D1 |
Departure
| Time | 2026-05-07 20:43 |
|---|---|
| Airport | Dubai International Airport (OMDB) |
Arrival
| Time | N/A |
|---|---|
| Airport | Bahrain International Airport (OBBI) |
| Time | Latitude | Longitude | Altitude | Speed | Heading |
|---|---|---|---|---|---|
| 2026-05-07 20:15 | 25.24065 | 55.37488 | 27 ft | 0 kts | 355° |
| 2026-05-07 20:31 | 25.24061 | 55.37489 | 27 ft | 3 kts | 355° |
| 2026-05-07 20:31 | 25.24034 | 55.37491 | 26 ft | 4 kts | 355° |
| 2026-05-07 20:32 | 25.24013 | 55.37492 | 25 ft | 4 kts | 11° |
| 2026-05-07 20:32 | 25.23992 | 55.37480 | 25 ft | 4 kts | 57° |
| 2026-05-07 20:32 | 25.23982 | 55.37453 | 24 ft | 4 kts | 84° |
| 2026-05-07 20:32 | 25.23984 | 55.37424 | 26 ft | 4 kts | 115° |
| 2026-05-07 20:33 | 25.23997 | 55.37399 | 24 ft | 4 kts | 122° |
| 2026-05-07 20:33 | 25.24004 | 55.37388 | 26 ft | 0 kts | 122° |
| 2026-05-07 20:37 | 25.23991 | 55.37410 | 24 ft | 7 kts | 121° |
| 2026-05-07 20:37 | 25.23969 | 55.37482 | 25 ft | 13 kts | 98° |
| 2026-05-07 20:37 | 25.23997 | 55.37586 | 27 ft | 16 kts | 49° |
| 2026-05-07 20:37 | 25.24047 | 55.37630 | 27 ft | 4 kts | 35° |
| 2026-05-07 20:38 | 25.24077 | 55.37650 | 27 ft | 7 kts | 31° |
| 2026-05-07 20:38 | 25.24123 | 55.37680 | 27 ft | 10 kts | 32° |
| 2026-05-07 20:38 | 25.24171 | 55.37713 | 27 ft | 9 kts | 31° |
| 2026-05-07 20:38 | 25.24208 | 55.37738 | 27 ft | 11 kts | 31° |
| 2026-05-07 20:39 | 25.24281 | 55.37787 | 28 ft | 14 kts | 31° |
| 2026-05-07 20:39 | 25.24342 | 55.37827 | 28 ft | 8 kts | 28° |
| 2026-05-07 20:39 | 25.24344 | 55.37828 | 28 ft | 0 kts | 28° |
| 2026-05-07 20:39 | 25.24361 | 55.37841 | 28 ft | 7 kts | 34° |
| 2026-05-07 20:40 | 25.24411 | 55.37881 | 30 ft | 10 kts | 37° |
| 2026-05-07 20:40 | 25.24471 | 55.37928 | 31 ft | 12 kts | 34° |
| 2026-05-07 20:40 | 25.24549 | 55.37987 | 30 ft | 16 kts | 34° |
| 2026-05-07 20:40 | 25.24637 | 55.38051 | 30 ft | 0 kts | 31° |
| 2026-05-07 20:41 | 25.24636 | 55.38051 | 30 ft | 0 kts | 31° |
| 2026-05-07 20:41 | 25.24646 | 55.38058 | 30 ft | 4 kts | 31° |
| 2026-05-07 20:41 | 25.24684 | 55.38082 | 31 ft | 8 kts | 31° |
| 2026-05-07 20:42 | 25.24744 | 55.38106 | 32 ft | 10 kts | 354° |
| 2026-05-07 20:42 | 25.24797 | 55.38042 | 31 ft | 13 kts | 302° |
| 2026-05-07 20:42 | 25.24856 | 55.37938 | 32 ft | 22 kts | 301° |
| 2026-05-07 20:42 | 25.25051 | 55.37587 | 33 ft | 92 kts | 301° |
| 2026-05-07 20:43 | 25.25515 | 55.36753 | 30 ft | 160 kts | 301° |
| 2026-05-07 20:43 | 25.26151 | 55.35611 | 557 ft | 177 kts | 301° |
| 2026-05-07 20:43 | 25.26780 | 55.34461 | 1365 ft | 177 kts | 299° |
| 2026-05-07 20:43 | 25.27403 | 55.33223 | 1937 ft | 193 kts | 298° |
| 2026-05-07 20:44 | 25.28084 | 55.31869 | 2293 ft | 215 kts | 298° |
| 2026-05-07 20:44 | 25.28845 | 55.30353 | 2744 ft | 233 kts | 295° |
| 2026-05-07 20:44 | 25.29073 | 55.28615 | 3513 ft | 228 kts | 259° |
| 2026-05-07 20:44 | 25.28543 | 55.26963 | 4265 ft | 230 kts | 246° |
| 2026-05-07 20:45 | 25.27858 | 55.25363 | 5032 ft | 235 kts | 244° |
| 2026-05-07 20:45 | 25.27141 | 55.23716 | 5741 ft | 240 kts | 244° |
| 2026-05-07 20:45 | 25.26412 | 55.22032 | 6484 ft | 245 kts | 245° |
| 2026-05-07 20:45 | 25.25681 | 55.20336 | 7217 ft | 247 kts | 245° |
| 2026-05-07 20:46 | 25.24940 | 55.18604 | 8009 ft | 250 kts | 245° |
| 2026-05-07 20:46 | 25.24239 | 55.16852 | 8842 ft | 253 kts | 251° |
| 2026-05-07 20:46 | 25.23822 | 55.14934 | 9529 ft | 265 kts | 261° |
| 2026-05-07 20:46 | 25.23530 | 55.12822 | 9980 ft | 284 kts | 262° |
| 2026-05-07 20:47 | 25.23242 | 55.10599 | 10444 ft | 302 kts | 262° |
| 2026-05-07 20:47 | 25.22930 | 55.08240 | 10794 ft | 323 kts | 261° |
| 2026-05-07 20:47 | 25.22587 | 55.05690 | 11188 ft | 341 kts | 261° |
| 2026-05-07 20:47 | 25.22233 | 55.03086 | 11763 ft | 350 kts | 261° |
| 2026-05-07 20:48 | 25.21862 | 55.00380 | 12442 ft | 357 kts | 261° |
| 2026-05-07 20:48 | 25.21490 | 54.97664 | 13182 ft | 361 kts | 261° |
| 2026-05-07 20:48 | 25.21107 | 54.94879 | 13860 ft | 367 kts | 261° |
| 2026-05-07 20:48 | 25.20801 | 54.92098 | 14424 ft | 371 kts | 265° |
| 2026-05-07 20:49 | 25.20619 | 54.89237 | 14724 ft | 373 kts | 265° |
| 2026-05-07 20:49 | 25.20447 | 54.86364 | 14813 ft | 374 kts | 265° |
| 2026-05-07 20:49 | 25.20264 | 54.83528 | 14821 ft | 375 kts | 265° |
| 2026-05-07 20:49 | 25.20067 | 54.80643 | 14831 ft | 376 kts | 265° |
| 2026-05-07 20:50 | 25.19870 | 54.77745 | 15170 ft | 379 kts | 265° |
| 2026-05-07 20:50 | 25.19875 | 54.74850 | 15905 ft | 381 kts | 272° |
| 2026-05-07 20:50 | 25.20033 | 54.71910 | 16673 ft | 382 kts | 273° |